createdAt,value
2019-03-22T00:02:22.448Z,99318.86
2019-03-22T00:04:53.607Z,99317.91
2019-03-22T00:07:24.791Z,99317.91
2019-03-22T00:09:55.724Z,99315.17
2019-03-22T00:12:26.587Z,99317.38
2019-03-22T00:14:57.851Z,99319.03
2019-03-22T00:17:29.149Z,99317.53
2019-03-22T00:20:00.549Z,99316.25
2019-03-22T00:22:31.475Z,99324.20
2019-03-22T00:25:02.985Z,99331.11
2019-03-22T00:27:34.217Z,99327.21
2019-03-22T00:30:05.472Z,99327.12
2019-03-22T00:32:36.753Z,99327.12
2019-03-22T00:35:08.756Z,99324.58
2019-03-22T00:37:39.752Z,99321.64
2019-03-22T00:40:11.246Z,99322.97
2019-03-22T00:42:42.408Z,99325.64
2019-03-22T00:45:13.865Z,99327.43
2019-03-22T00:47:45.025Z,99328.69
2019-03-22T00:50:16.233Z,99328.70
2019-03-22T00:52:47.280Z,99329.98
2019-03-22T00:55:18.661Z,99320.80
2019-03-22T00:57:52.407Z,99324.28
2019-03-22T01:00:23.908Z,99322.53
2019-03-22T01:02:55.121Z,99318.17
2019-03-22T01:05:26.148Z,99310.19
2019-03-22T01:07:57.179Z,99313.35
2019-03-22T01:10:28.479Z,99312.16
2019-03-22T01:12:59.348Z,99314.31
2019-03-22T01:15:30.597Z,99319.10
2019-03-22T01:18:01.854Z,99322.15
2019-03-22T01:20:32.901Z,99327.39
2019-03-22T01:23:03.690Z,99325.12
2019-03-22T01:25:35.005Z,99318.80
2019-03-22T01:28:06.152Z,99314.44
2019-03-22T01:30:37.498Z,99315.39
2019-03-22T01:33:08.454Z,99313.33
2019-03-22T01:35:39.637Z,99309.05
2019-03-22T01:38:11.006Z,99310.36
2019-03-22T01:40:42.100Z,99312.54
2019-03-22T01:43:13.354Z,99311.19
2019-03-22T01:45:44.528Z,99308.61
2019-03-22T01:48:15.796Z,99316.13
2019-03-22T01:50:46.915Z,99310.88
2019-03-22T01:53:18.244Z,99308.67
2019-03-22T01:55:49.483Z,99313.06
2019-03-22T01:58:20.546Z,99307.77
2019-03-22T02:00:51.556Z,99299.65
2019-03-22T02:03:22.781Z,99300.66
2019-03-22T02:05:53.902Z,99308.55
2019-03-22T02:08:25.006Z,99309.41
2019-03-22T02:10:56.350Z,99308.56
2019-03-22T02:13:27.661Z,99310.28
2019-03-22T02:15:59.070Z,99310.32
2019-03-22T02:18:30.216Z,99314.24
2019-03-22T02:21:01.579Z,99319.06
2019-03-22T02:23:32.637Z,99316.02
2019-03-22T02:26:03.416Z,99313.41
2019-03-22T02:28:34.291Z,99319.02
2019-03-22T02:31:05.394Z,99315.53
2019-03-22T02:33:36.387Z,99312.94
2019-03-22T02:36:07.551Z,99314.28
2019-03-22T02:38:39.192Z,99317.77
2019-03-22T02:41:11.716Z,99317.75
2019-03-22T02:43:42.919Z,99319.94
2019-03-22T02:46:14.327Z,99320.38
2019-03-22T02:48:45.439Z,99323.42
2019-03-22T02:51:16.347Z,99323.84
2019-03-22T02:53:47.458Z,99325.59
2019-03-22T02:56:18.411Z,99334.77
2019-03-22T02:58:49.746Z,99331.25
2019-03-22T03:01:21.119Z,99331.71
2019-03-22T03:03:54.937Z,99338.22
2019-03-22T03:06:26.380Z,99329.96
2019-03-22T03:08:57.487Z,99335.19
2019-03-22T03:11:28.674Z,99336.07
2019-03-22T03:13:59.734Z,99337.34
2019-03-22T03:16:30.819Z,99330.40
2019-03-22T03:19:01.992Z,99335.14
2019-03-22T03:21:33.219Z,99339.50
2019-03-22T03:24:04.462Z,99341.22
2019-03-22T03:26:35.642Z,99332.10
2019-03-22T03:29:06.784Z,99335.08
2019-03-22T03:31:37.845Z,99321.53
2019-03-22T03:34:08.641Z,99323.73
2019-03-22T03:36:40.005Z,99327.57
2019-03-22T03:39:11.479Z,99317.55
2019-03-22T03:41:42.490Z,99312.70
2019-03-22T03:44:13.634Z,99310.55
2019-03-22T03:46:44.978Z,99311.84
2019-03-22T03:49:16.160Z,99298.81
2019-03-22T03:51:47.210Z,99309.66
2019-03-22T03:54:18.542Z,99308.77
2019-03-22T03:56:49.621Z,99308.33
2019-03-22T03:59:20.766Z,99310.94
2019-03-22T04:01:51.858Z,99306.98
2019-03-22T04:04:23.132Z,99301.27
2019-03-22T04:06:54.362Z,99298.64
2019-03-22T04:09:25.488Z,99308.63
2019-03-22T04:11:56.575Z,99313.45
2019-03-22T04:14:27.773Z,99315.61
2019-03-22T04:16:58.979Z,99322.10
2019-03-22T04:19:29.735Z,99320.30
2019-03-22T04:22:02.592Z,99321.73
2019-03-22T04:24:33.816Z,99324.88
2019-03-22T04:27:05.035Z,99321.03
2019-03-22T04:29:36.201Z,99322.80
2019-03-22T04:32:07.429Z,99321.52
2019-03-22T04:34:38.600Z,99328.95
2019-03-22T04:37:09.937Z,99325.42
2019-03-22T04:39:41.391Z,99330.59
2019-03-22T04:42:12.538Z,99332.75
2019-03-22T04:44:43.606Z,99327.92
2019-03-22T04:47:16.702Z,99330.97
2019-03-22T04:49:49.968Z,99325.75
2019-03-22T04:52:23.925Z,99338.84
2019-03-22T04:54:57.574Z,99334.46
2019-03-22T04:57:31.261Z,99345.40
2019-03-22T05:00:03.817Z,99344.02
2019-03-22T05:02:35.847Z,99344.94
2019-03-22T05:05:08.755Z,99348.84
2019-03-22T05:07:40.075Z,99352.31
2019-03-22T05:10:14.221Z,99356.65
2019-03-22T05:12:47.501Z,99349.66
2019-03-22T05:15:20.776Z,99353.55
2019-03-22T05:17:52.093Z,99355.67
2019-03-22T05:20:24.273Z,99354.78
2019-03-22T05:22:56.819Z,99352.55
2019-03-22T05:25:29.068Z,99357.38
2019-03-22T05:28:03.256Z,99357.36
2019-03-22T05:31:12.405Z,99351.71
2019-03-22T05:33:43.802Z,99351.64
2019-03-22T05:36:15.098Z,99357.73
2019-03-22T05:38:46.205Z,99354.70
2019-03-22T05:41:17.217Z,99360.80
2019-03-22T05:43:48.690Z,99356.46
2019-03-22T05:46:19.881Z,99357.42
2019-03-22T05:48:50.788Z,99360.91
2019-03-22T05:51:21.456Z,99359.66
2019-03-22T05:53:52.629Z,99368.40
2019-03-22T05:56:23.703Z,99374.02
2019-03-22T05:58:54.822Z,99367.87
2019-03-22T06:01:26.165Z,99363.52
2019-03-22T06:03:57.373Z,99359.20
2019-03-22T06:06:28.752Z,99357.05
2019-03-22T06:09:00.171Z,99357.92
2019-03-22T06:11:31.541Z,99356.95
2019-03-22T06:14:02.697Z,99360.81
2019-03-22T06:16:33.634Z,99353.71
2019-03-22T06:19:04.708Z,99353.59
2019-03-22T06:21:35.736Z,99349.94
2019-03-22T06:24:06.849Z,99352.54
2019-03-22T06:26:37.810Z,99354.60
2019-03-22T06:29:09.204Z,99350.16
2019-03-22T06:31:40.708Z,99353.09
2019-03-22T06:34:11.936Z,99350.81
2019-03-22T06:36:43.101Z,99355.59
2019-03-22T06:39:14.331Z,99348.45
2019-03-22T06:41:47.001Z,99342.64
2019-03-22T06:44:18.415Z,99344.76
2019-03-22T06:46:49.691Z,99341.08
2019-03-22T06:49:20.977Z,99339.70
2019-03-22T06:51:52.047Z,99346.57
2019-03-22T06:54:31.464Z,99336.33
2019-03-22T06:56:56.395Z,99337.02
2019-03-22T06:59:27.629Z,99336.01
2019-03-22T07:02:02.286Z,99337.88
2019-03-22T07:04:34.830Z,99334.59
2019-03-22T07:07:06.197Z,99338.92
2019-03-22T07:09:37.215Z,99327.44
2019-03-22T07:12:08.420Z,99330.22
2019-03-22T07:14:39.957Z,99335.27
2019-03-22T07:17:11.127Z,99336.52
2019-03-22T07:19:45.118Z,99326.45
2019-03-22T07:22:16.480Z,99330.47
2019-03-22T07:24:47.309Z,99332.80
2019-03-22T07:27:18.381Z,99335.44
2019-03-22T07:29:49.559Z,99328.83
2019-03-22T07:32:21.759Z,99326.81
2019-03-22T07:34:52.725Z,99328.19
2019-03-22T07:37:23.994Z,99333.03
2019-03-22T07:39:55.458Z,99321.04
2019-03-22T07:42:26.693Z,99323.80
2019-03-22T07:44:57.594Z,99324.58
2019-03-22T07:47:28.721Z,99322.16
2019-03-22T07:50:00.025Z,99326.31
2019-03-22T07:52:31.281Z,99324.48
2019-03-22T07:55:02.595Z,99322.12
2019-03-22T07:57:34.033Z,99323.47
2019-03-22T08:00:05.519Z,99324.18
2019-03-22T08:02:36.638Z,99326.41
2019-03-22T08:05:08.177Z,99318.75
2019-03-22T08:07:39.362Z,99319.45
2019-03-22T08:10:12.941Z,99313.48
2019-03-22T08:12:43.963Z,99314.09
2019-03-22T08:15:26.754Z,99313.67
2019-03-22T08:17:57.857Z,99309.44
2019-03-22T08:20:28.825Z,99304.08
2019-03-22T08:23:00.123Z,99303.00
2019-03-22T08:25:32.625Z,99308.02
2019-03-22T08:28:04.176Z,99312.03
2019-03-22T08:30:42.879Z,99300.00
2019-03-22T08:33:08.143Z,99305.56
2019-03-22T08:35:39.276Z,99301.67
2019-03-22T08:38:10.193Z,99305.30
2019-03-22T08:40:41.205Z,99307.37
2019-03-22T08:43:12.167Z,99299.27
2019-03-22T08:45:43.250Z,99292.45
2019-03-22T08:48:14.265Z,99289.01
2019-03-22T08:50:45.242Z,99291.09
2019-03-22T08:53:16.128Z,99285.27
2019-03-22T08:55:47.519Z,99283.19
2019-03-22T08:58:18.939Z,99283.09
2019-03-22T09:00:57.275Z,99285.28
2019-03-22T09:03:22.683Z,99274.05
2019-03-22T09:05:53.753Z,99270.97
2019-03-22T09:08:25.031Z,99274.70
2019-03-22T09:10:56.169Z,99268.80
2019-03-22T09:13:27.318Z,99264.15
2019-03-22T09:15:58.410Z,99258.98
2019-03-22T09:18:29.539Z,99257.79
2019-03-22T09:21:00.781Z,99249.13
2019-03-22T09:23:31.807Z,99248.92
2019-03-22T09:26:02.933Z,99250.61
2019-03-22T09:28:34.145Z,99248.52
2019-03-22T09:31:10.065Z,99251.34
2019-03-22T09:33:38.009Z,99245.44
2019-03-22T09:36:08.644Z,99242.44
2019-03-22T09:38:39.591Z,99239.40
2019-03-22T09:41:10.818Z,99234.81
2019-03-22T09:43:41.901Z,99237.63
2019-03-22T09:46:12.681Z,99232.70
2019-03-22T09:48:43.289Z,99227.13
2019-03-22T09:51:14.668Z,99227.57
2019-03-22T09:53:45.567Z,99226.44
2019-03-22T09:56:16.427Z,99220.45
2019-03-22T09:58:47.328Z,99221.33
2019-03-22T10:01:23.723Z,99217.05
2019-03-22T10:03:50.976Z,99222.42
2019-03-22T10:06:22.147Z,99223.46
2019-03-22T10:08:53.159Z,99218.94
2019-03-22T10:11:25.024Z,99217.95
2019-03-22T10:13:55.783Z,99210.70
2019-03-22T10:16:26.886Z,99204.39
2019-03-22T10:18:58.075Z,99199.35
2019-03-22T10:21:29.327Z,99193.16
2019-03-22T10:24:00.183Z,99192.53
2019-03-22T10:26:31.453Z,99191.78
2019-03-22T10:29:02.578Z,99178.60
2019-03-22T10:31:37.399Z,99177.43
2019-03-22T10:34:05.998Z,99178.07
2019-03-22T10:36:36.992Z,99181.77
2019-03-22T10:39:10.506Z,99173.31
2019-03-22T10:41:41.673Z,99175.88
2019-03-22T10:44:12.978Z,99167.20
2019-03-22T10:46:43.923Z,99158.79
2019-03-22T10:49:14.891Z,99149.70
2019-03-22T10:51:56.126Z,99148.08
2019-03-22T10:54:18.765Z,99149.79
2019-03-22T10:56:49.719Z,99149.98
2019-03-22T10:59:20.865Z,99138.74
2019-03-22T11:02:02.701Z,99128.16
2019-03-22T11:04:24.706Z,99127.91
2019-03-22T11:06:58.043Z,99124.91
2019-03-22T11:09:28.871Z,99128.44
2019-03-22T11:11:59.913Z,99123.78
2019-03-22T11:14:31.066Z,99118.63
2019-03-22T11:17:02.239Z,99117.20
2019-03-22T11:19:33.399Z,99121.06
2019-03-22T11:22:04.735Z,99114.58
2019-03-22T11:24:35.726Z,99109.48
2019-03-22T11:27:07.313Z,99100.87
2019-03-22T11:29:38.536Z,99100.89
2019-03-22T11:32:12.790Z,99098.26
2019-03-22T11:34:42.263Z,99092.86
2019-03-22T11:37:13.493Z,99078.64
2019-03-22T11:39:44.561Z,99070.39
2019-03-22T11:42:15.657Z,99072.38
2019-03-22T11:44:46.774Z,99068.84
2019-03-22T11:47:18.147Z,99056.45
2019-03-22T11:49:49.286Z,99060.30
2019-03-22T11:52:20.131Z,99049.19
2019-03-22T11:54:51.062Z,99056.03
2019-03-22T11:57:22.154Z,99051.45
2019-03-22T11:59:53.305Z,99043.16
2019-03-22T12:02:25.129Z,99049.68
2019-03-22T12:04:56.346Z,99042.78
2019-03-22T12:07:27.117Z,99041.00
2019-03-22T12:09:58.206Z,99039.76
2019-03-22T12:12:29.458Z,99032.37
2019-03-22T12:15:00.622Z,99019.70
2019-03-22T12:17:31.541Z,99019.63
2019-03-22T12:20:02.424Z,99015.17
2019-03-22T12:22:33.583Z,99007.28
2019-03-22T12:25:05.026Z,99012.20
2019-03-22T12:27:38.786Z,99012.63
2019-03-22T12:30:12.135Z,99007.96
2019-03-22T12:32:43.162Z,99007.30
2019-03-22T12:35:15.129Z,99012.38
2019-03-22T12:37:46.398Z,99003.07
2019-03-22T12:40:18.429Z,99000.22
2019-03-22T12:42:49.825Z,99001.73
2019-03-22T12:45:26.315Z,98997.16
2019-03-22T12:47:57.635Z,99001.58
2019-03-22T12:50:29.121Z,98995.38
2019-03-22T12:53:00.369Z,98990.65
2019-03-22T12:55:31.467Z,98983.66
2019-03-22T12:58:03.226Z,98979.84
2019-03-22T13:00:34.459Z,98969.20
2019-03-22T13:03:05.536Z,98962.41
2019-03-22T13:05:36.747Z,98961.52
2019-03-22T13:08:08.029Z,98961.42
2019-03-22T13:10:38.992Z,98954.37
2019-03-22T13:13:09.800Z,98953.25
2019-03-22T13:15:40.947Z,98941.67
2019-03-22T13:18:12.087Z,98939.33
2019-03-22T13:20:43.151Z,98939.75
2019-03-22T13:23:14.334Z,98926.45
2019-03-22T13:25:45.428Z,98921.82
2019-03-22T13:28:16.665Z,98921.55
2019-03-22T13:30:47.548Z,98922.34
2019-03-22T13:33:18.982Z,98913.98
2019-03-22T13:35:50.132Z,98903.84
2019-03-22T13:38:20.987Z,98900.85
2019-03-22T13:40:52.179Z,98899.77
2019-03-22T13:43:23.232Z,98892.14
2019-03-22T13:45:54.250Z,98885.30
2019-03-22T13:48:25.349Z,98880.25
2019-03-22T13:50:56.357Z,98879.54
2019-03-22T13:53:27.424Z,98868.66
2019-03-22T13:55:58.446Z,98868.66
2019-03-22T13:58:29.304Z,98862.70
2019-03-22T14:01:00.550Z,98866.02
2019-03-22T14:03:33.229Z,98858.50
2019-03-22T14:06:04.547Z,98853.91
2019-03-22T14:08:35.308Z,98851.16
2019-03-22T14:11:06.537Z,98858.51
2019-03-22T14:13:39.741Z,98850.78
2019-03-22T14:16:10.607Z,98844.26
2019-03-22T14:18:41.603Z,98840.49
2019-03-22T14:21:12.812Z,98836.97
2019-03-22T14:23:45.569Z,98842.73
2019-03-22T14:26:16.699Z,98838.09
2019-03-22T14:28:47.564Z,98839.55
2019-03-22T14:31:18.857Z,98843.92
2019-03-22T14:33:50.052Z,98846.02
2019-03-22T14:36:21.096Z,98836.19
2019-03-22T14:38:52.432Z,98834.62
2019-03-22T14:41:23.753Z,98827.28
2019-03-22T14:43:54.918Z,98829.95
2019-03-22T14:46:26.103Z,98828.42
2019-03-22T14:48:57.247Z,98824.98
2019-03-22T14:51:28.441Z,98820.38
2019-03-22T14:53:59.595Z,98822.33
2019-03-22T14:56:30.758Z,98820.21
2019-03-22T14:59:01.992Z,98819.28
2019-03-22T15:01:33.341Z,98813.35
2019-03-22T15:04:04.287Z,98815.20
2019-03-22T15:06:35.544Z,98817.91
2019-03-22T15:09:08.310Z,98818.02
2019-03-22T15:11:39.617Z,98820.63
2019-03-22T15:14:29.736Z,98824.38
2019-03-22T15:17:17.774Z,98825.50
2019-03-22T15:20:10.621Z,98820.65
2019-03-22T15:23:06.274Z,98819.33
2019-03-22T15:25:59.416Z,98826.73
2019-03-22T15:28:48.174Z,98825.73
2019-03-22T15:31:56.712Z,98823.70
2019-03-22T15:34:45.648Z,98819.59
2019-03-22T15:40:06.221Z,98827.39
2019-03-22T15:42:37.178Z,98819.87
2019-03-22T15:45:10.717Z,98824.27
2019-03-22T15:47:42.119Z,98826.18
2019-03-22T15:50:15.109Z,98826.33
2019-03-22T15:52:46.064Z,98824.88
2019-03-22T15:55:17.214Z,98826.28
2019-03-22T15:57:48.364Z,98827.36
2019-03-22T16:00:23.175Z,98824.34
2019-03-22T16:02:54.148Z,98825.63
2019-03-22T16:05:25.462Z,98824.05
2019-03-22T16:07:56.955Z,98828.42
2019-03-22T16:10:28.098Z,98833.64
2019-03-22T16:12:59.256Z,98828.16
2019-03-22T16:15:30.543Z,98829.73
2019-03-22T16:18:03.883Z,98823.32
2019-03-22T16:20:35.111Z,98829.27
2019-03-22T16:23:06.312Z,98830.34
2019-03-22T16:25:37.619Z,98827.09
2019-03-22T16:28:08.824Z,98823.97
2019-03-22T16:30:40.298Z,98828.89
2019-03-22T16:33:12.971Z,98822.84
2019-03-22T16:35:44.213Z,98816.39
2019-03-22T16:38:15.353Z,98813.33
2019-03-22T16:40:49.745Z,98815.28
2019-03-22T16:43:21.219Z,98810.00
2019-03-22T16:45:52.279Z,98813.32
2019-03-22T16:48:23.305Z,98812.57
2019-03-22T16:50:54.469Z,98809.62
2019-03-22T16:53:25.668Z,98804.14
2019-03-22T16:55:56.905Z,98802.45
2019-03-22T16:58:27.888Z,98805.28
2019-03-22T17:00:58.904Z,98803.56
2019-03-22T17:03:29.946Z,98804.41
2019-03-22T17:06:01.196Z,98801.51
2019-03-22T17:08:32.451Z,98806.48
2019-03-22T17:11:03.883Z,98800.72
2019-03-22T17:13:35.013Z,98802.56
2019-03-22T17:16:05.924Z,98791.38
2019-03-22T17:18:37.008Z,98792.70
2019-03-22T17:21:08.056Z,98793.73
2019-03-22T17:23:41.743Z,98804.31
2019-03-22T17:26:14.335Z,98803.87
2019-03-22T17:28:48.044Z,98803.50
2019-03-22T17:31:19.479Z,98803.33
2019-03-22T17:33:50.724Z,98806.61
2019-03-22T17:36:22.132Z,98806.79
2019-03-22T17:38:53.213Z,98808.95
2019-03-22T17:41:24.463Z,98805.69
2019-03-22T17:43:55.897Z,98805.52
2019-03-22T17:46:28.062Z,98802.48
2019-03-22T17:48:59.175Z,98802.56
2019-03-22T17:51:30.613Z,98808.39
2019-03-22T17:54:01.967Z,98802.73
2019-03-22T17:56:33.423Z,98808.22
2019-03-22T17:59:04.817Z,98804.64
2019-03-22T18:01:36.121Z,98813.92
2019-03-22T18:04:07.446Z,98813.59
2019-03-22T18:06:38.529Z,98814.52
2019-03-22T18:09:11.272Z,98815.05
2019-03-22T18:11:42.570Z,98812.53
2019-03-22T18:14:13.871Z,98815.37
2019-03-22T18:16:45.079Z,98824.49
2019-03-22T18:19:19.251Z,98821.08
2019-03-22T18:21:51.979Z,98822.84
2019-03-22T18:24:23.060Z,98829.34
2019-03-22T18:26:54.333Z,98835.48
2019-03-22T18:29:27.005Z,98834.70
2019-03-22T18:31:58.559Z,98826.06
2019-03-22T18:34:34.876Z,98821.73
2019-03-22T18:37:03.581Z,98825.97
2019-03-22T18:39:36.912Z,98832.65
2019-03-22T18:42:09.000Z,98831.92
2019-03-22T18:44:40.213Z,98832.50
2019-03-22T18:47:11.345Z,98829.87
2019-03-22T18:49:42.713Z,98828.61
2019-03-22T18:52:14.048Z,98827.48
2019-03-22T18:54:45.817Z,98837.56
2019-03-22T18:57:18.175Z,98839.56
2019-03-22T18:59:49.486Z,98843.16
2019-03-22T19:02:20.905Z,98837.30
2019-03-22T19:04:52.135Z,98839.68
2019-03-22T19:07:23.324Z,98834.69
2019-03-22T19:09:54.643Z,98835.69
2019-03-22T19:12:25.812Z,98835.65
2019-03-22T19:14:57.121Z,98836.44
2019-03-22T19:17:28.589Z,98839.25
2019-03-22T19:20:00.917Z,98836.45
2019-03-22T19:22:32.313Z,98830.23
2019-03-22T19:25:03.351Z,98833.08
2019-03-22T19:27:34.451Z,98835.48
2019-03-22T19:30:06.038Z,98832.19
2019-03-22T19:32:37.047Z,98837.25
2019-03-22T19:35:09.331Z,98838.76
2019-03-22T19:37:42.129Z,98837.61
2019-03-22T19:40:15.099Z,98832.95
2019-03-22T19:42:46.337Z,98837.22
2019-03-22T19:45:18.040Z,98838.73
2019-03-22T19:47:49.483Z,98837.94
2019-03-22T19:50:20.522Z,98840.16
2019-03-22T19:52:54.178Z,98831.88
2019-03-22T19:55:28.397Z,98835.58
2019-03-22T19:57:59.628Z,98837.59
2019-03-22T20:00:31.004Z,98840.77
2019-03-22T20:03:02.362Z,98840.00
2019-03-22T20:05:36.946Z,98842.33
2019-03-22T20:08:08.310Z,98840.43
2019-03-22T20:10:39.766Z,98843.46
2019-03-22T20:13:11.199Z,98840.03
2019-03-22T20:15:42.137Z,98843.28
2019-03-22T20:18:13.276Z,98837.80
2019-03-22T20:20:45.315Z,98842.19
2019-03-22T20:23:16.715Z,98842.03
2019-03-22T20:25:47.872Z,98845.14
2019-03-22T20:28:18.726Z,98847.36
2019-03-22T20:30:50.064Z,98844.02
2019-03-22T20:33:23.961Z,98855.84
2019-03-22T20:35:55.097Z,98855.17
2019-03-22T20:38:27.524Z,98859.30
2019-03-22T20:40:58.880Z,98856.61
2019-03-22T20:43:30.277Z,98856.06
2019-03-22T20:46:01.473Z,98865.18
2019-03-22T20:48:32.581Z,98864.02
2019-03-22T20:51:03.973Z,98867.70
2019-03-22T20:53:35.196Z,98865.58
2019-03-22T20:56:06.390Z,98868.78
2019-03-22T20:58:37.813Z,98870.94
2019-03-22T21:01:09.124Z,98863.05
2019-03-22T21:03:40.401Z,98869.22
2019-03-22T21:06:11.796Z,98868.41
2019-03-22T21:08:42.899Z,98861.58
2019-03-22T21:11:14.005Z,98859.56
2019-03-22T21:13:45.165Z,98856.77
2019-03-22T21:16:16.380Z,98854.55
2019-03-22T21:18:47.510Z,98861.34
2019-03-22T21:21:18.606Z,98853.33
2019-03-22T21:23:49.679Z,98857.55
2019-03-22T21:26:21.019Z,98862.61
2019-03-22T21:28:52.216Z,98857.08
2019-03-22T21:31:23.443Z,98864.16
2019-03-22T21:33:54.731Z,98861.23
2019-03-22T21:36:25.962Z,98870.27
2019-03-22T21:38:57.451Z,98864.80
2019-03-22T21:41:28.875Z,98865.96
2019-03-22T21:44:00.183Z,98866.92
2019-03-22T21:46:31.371Z,98858.89
2019-03-22T21:49:02.483Z,98870.42
2019-03-22T21:51:33.688Z,98875.26
2019-03-22T21:54:04.950Z,98874.03
2019-03-22T21:56:36.128Z,98872.25
2019-03-22T21:59:07.329Z,98875.63
2019-03-22T22:01:38.550Z,98871.84
2019-03-22T22:04:09.814Z,98868.70
2019-03-22T22:06:41.253Z,98863.98
2019-03-22T22:09:12.269Z,98859.41
2019-03-22T22:11:43.289Z,98857.83
2019-03-22T22:14:14.143Z,98864.08
2019-03-22T22:16:45.361Z,98864.14
2019-03-22T22:19:16.607Z,98865.48
2019-03-22T22:21:48.081Z,98859.41
2019-03-22T22:24:19.257Z,98859.91
2019-03-22T22:26:50.595Z,98859.98
2019-03-22T22:29:21.828Z,98864.02
2019-03-22T22:31:52.926Z,98857.91
2019-03-22T22:34:24.281Z,98861.17
2019-03-22T22:36:55.684Z,98858.91
2019-03-22T22:39:27.001Z,98862.91
2019-03-22T22:41:57.821Z,98857.87
2019-03-22T22:44:28.788Z,98864.13
2019-03-22T22:46:59.894Z,98865.53
2019-03-22T22:49:31.285Z,98862.48
2019-03-22T22:52:02.800Z,98866.00
2019-03-22T22:54:34.203Z,98866.61
2019-03-22T22:57:05.122Z,98864.34
2019-03-22T22:59:36.395Z,98863.48
2019-03-22T23:02:07.763Z,98857.45
2019-03-22T23:04:39.192Z,98855.77
2019-03-22T23:07:10.168Z,98860.56
2019-03-22T23:09:41.182Z,98863.36
2019-03-22T23:12:12.974Z,98873.67
2019-03-22T23:14:44.343Z,98863.19
2019-03-22T23:17:15.085Z,98862.86
2019-03-22T23:19:46.054Z,98866.41
2019-03-22T23:22:17.411Z,98873.73
2019-03-22T23:24:48.701Z,98881.03
2019-03-22T23:27:19.765Z,98879.72
2019-03-22T23:29:50.858Z,98879.72
2019-03-22T23:32:22.009Z,98874.14
2019-03-22T23:34:58.903Z,98865.95
2019-03-22T23:37:25.853Z,98870.34
2019-03-22T23:39:56.972Z,98869.92
2019-03-22T23:42:27.867Z,98869.95
2019-03-22T23:44:58.950Z,98870.03
2019-03-22T23:47:30.298Z,98877.83
2019-03-22T23:50:01.503Z,98872.20
2019-03-22T23:52:32.407Z,98875.34
2019-03-22T23:55:03.279Z,98878.00
2019-03-22T23:57:34.654Z,98869.80
